Time;durP1;ratioP1;P1;durP2;ratioP2;P2;SDS_P1;SDS_P2;PMS_P1;PMS_P2;Temp;Humidity;BMP_temperature;BMP_pressure;BME280_temperature;BME280_humidity;BME280_pressure;Samples;Min_cycle;Max_cycle;Signal;HPM_P1;HPM_P2
2023/12/08 00:02:20;;;;;;;0.35;0.35;;;;;;;14.87;86.48;100876.31;10460233;28;20052;-79
2023/12/08 00:07:22;;;;;;;0.22;0.22;;;;;;;14.75;87.45;100840.78;10441712;28;20032;-80
2023/12/08 00:12:24;;;;;;;0.57;0.57;;;;;;;15.38;85.19;100850.69;10449589;28;20041;-79
2023/12/08 00:17:27;;;;;;;0.80;0.73;;;;;;;15.99;84.71;100836.22;10453399;28;20055;-79
2023/12/08 00:22:29;;;;;;;0.15;0.15;;;;;;;14.97;85.76;100872.06;10450054;28;20060;-79
2023/12/08 00:27:31;;;;;;;0.15;0.15;;;;;;;15.34;85.38;100841.16;10455666;28;20053;-79
2023/12/08 00:32:33;;;;;;;0.05;0.05;;;;;;;14.55;85.72;100823.31;10453012;28;20079;-79
2023/12/08 00:37:35;;;;;;;0.55;0.55;;;;;;;14.88;85.54;100816.66;10451666;28;20041;-79
2023/12/08 00:42:37;;;;;;;0.20;0.20;;;;;;;15.18;85.07;100814.25;10457174;28;20049;-79
2023/12/08 00:47:39;;;;;;;2.00;0.57;;;;;;;15.97;85.91;100804.19;10475685;28;20033;-79
2023/12/08 00:52:41;;;;;;;0.30;0.15;;;;;;;15.19;85.49;100798.69;10434018;28;20060;-79
2023/12/08 00:57:44;;;;;;;0.30;0.20;;;;;;;15.73;87.05;100792.84;10433902;28;20052;-80
2023/12/08 01:02:46;;;;;;;0.15;0.15;;;;;;;15.55;85.65;100786.72;10473863;28;20056;-79
2023/12/08 01:07:48;;;;;;;0.00;0.00;;;;;;;16.34;85.24;100770.44;10436174;28;20150;-79
2023/12/08 01:12:50;;;;;;;1.20;1.08;;;;;;;16.46;85.55;100770.44;10449204;28;20513;-79
2023/12/08 01:17:51;;;;;;;0.17;0.17;;;;;;;16.34;84.17;100767.84;10432184;28;20071;-79
2023/12/08 01:22:54;;;;;;;1.00;0.75;;;;;;;15.86;85.58;100757.41;10453403;28;20106;-79
2023/12/08 01:27:56;;;;;;;0.20;0.20;;;;;;;15.32;85.83;100768.47;10452390;28;20090;-79
2023/12/08 01:32:57;;;;;;;0.00;0.00;;;;;;;15.77;85.37;100758.22;10449578;28;20063;-79
2023/12/08 01:37:59;;;;;;;0.93;0.93;;;;;;;15.50;85.01;100757.28;10440947;28;20048;-79
2023/12/08 01:43:01;;;;;;;0.20;0.13;;;;;;;17.18;84.88;100754.69;10436194;28;20079;-79
2023/12/08 01:48:04;;;;;;;0.00;0.00;;;;;;;15.53;84.23;100774.59;10466414;28;20064;-78
2023/12/08 01:53:06;;;;;;;0.00;0.00;;;;;;;16.12;83.03;100770.41;10432519;28;20531;-79
2023/12/08 01:58:08;;;;;;;0.00;0.00;;;;;;;15.93;84.10;100753.06;10440239;28;20044;-79
2023/12/08 02:03:12;;;;;;;0.28;0.28;;;;;;;15.54;83.53;100753.81;10444772;28;20053;-79
2023/12/08 02:08:14;;;;;;;0.45;0.10;;;;;;;17.12;83.07;100746.03;10418622;28;20076;-79
2023/12/08 02:13:16;;;;;;;0.10;0.10;;;;;;;17.20;80.70;100748.59;10446180;28;20075;-79
2023/12/08 02:18:18;;;;;;;0.13;0.13;;;;;;;18.33;80.80;100741.84;10452166;28;20047;-79
2023/12/08 02:23:20;;;;;;;0.15;0.05;;;;;;;19.04;79.43;100728.09;10442145;28;20072;-79
2023/12/08 02:28:22;;;;;;;0.22;0.22;;;;;;;18.52;78.58;100732.09;10432828;28;20056;-79
2023/12/08 02:33:30;;;;;;;0.00;0.00;;;;;;;18.47;79.45;100720.84;10448151;28;20071;-79
2023/12/08 02:38:33;;;;;;;0.00;0.00;;;;;;;18.20;80.71;100723.69;10435882;28;20400;-79
2023/12/08 02:43:35;;;;;;;0.25;0.17;;;;;;;18.03;80.12;100710.81;10442590;28;20052;-79
2023/12/08 02:48:37;;;;;;;0.03;0.03;;;;;;;17.63;80.03;100705.84;10464304;28;20082;-79
2023/12/08 02:53:39;;;;;;;0.57;0.40;;;;;;;18.83;78.69;100703.06;10451309;28;20052;-77
2023/12/08 02:58:41;;;;;;;0.00;0.00;;;;;;;16.68;81.53;100697.56;10445214;28;20167;-78
2023/12/08 03:03:42;;;;;;;0.03;0.03;;;;;;;17.20;80.11;100685.28;10447745;28;20055;-79
2023/12/08 03:08:44;;;;;;;0.05;0.05;;;;;;;18.96;79.45;100675.13;10447598;28;20044;-79
2023/12/08 03:13:46;;;;;;;0.10;0.10;;;;;;;18.08;80.98;100667.31;10434328;28;20049;-79
2023/12/08 03:18:48;;;;;;;0.00;0.00;;;;;;;18.03;79.67;100645.66;10459771;28;20112;-79
2023/12/08 03:23:50;;;;;;;5.38;1.23;;;;;;;18.22;82.75;100637.63;10465173;28;20068;-79
2023/12/08 03:28:52;;;;;;;0.43;0.30;;;;;;;16.45;84.13;100646.50;10440513;28;20044;-80
2023/12/08 03:33:55;;;;;;;0.70;0.40;;;;;;;16.89;85.34;100643.72;10453848;28;20055;-80
2023/12/08 03:38:57;;;;;;;0.10;0.10;;;;;;;16.65;84.76;100641.22;10441388;28;20095;-81
2023/12/08 03:43:58;;;;;;;0.32;0.32;;;;;;;16.17;84.98;100649.16;10455223;28;20127;-81
2023/12/08 03:49:00;;;;;;;0.20;0.20;;;;;;;16.69;83.91;100636.88;10451535;28;20120;-80
2023/12/08 03:54:02;;;;;;;0.38;0.38;;;;;;;17.07;85.92;100627.19;10454308;28;20040;-80
2023/12/08 03:59:04;;;;;;;0.20;0.20;;;;;;;16.79;85.14;100620.34;10457873;28;20033;-80
2023/12/08 04:04:06;;;;;;;0.50;0.30;;;;;;;15.45;88.16;100618.78;10443669;28;20123;-80
2023/12/08 04:09:07;;;;;;;0.28;0.28;;;;;;;16.99;87.05;100603.81;10437786;28;20059;-80
2023/12/08 04:14:09;;;;;;;0.05;0.05;;;;;;;17.88;85.82;100617.09;10439691;28;20045;-80
2023/12/08 04:19:12;;;;;;;0.43;0.28;;;;;;;17.62;84.75;100614.69;10458585;28;20051;-80
2023/12/08 04:24:14;;;;;;;0.10;0.10;;;;;;;15.69;86.49;100609.28;10441428;28;20410;-80
2023/12/08 04:29:16;;;;;;;0.17;0.17;;;;;;;16.43;86.67;100588.41;10459277;28;20446;-80
2023/12/08 04:34:18;;;;;;;3.85;0.60;;;;;;;16.56;87.23;100585.78;10442868;28;20131;-80
2023/12/08 04:39:20;;;;;;;0.25;0.22;;;;;;;16.84;87.44;100572.66;10449319;28;20041;-80
2023/12/08 04:44:21;;;;;;;0.38;0.17;;;;;;;17.24;85.78;100583.72;10441600;28;20064;-80
2023/12/08 04:49:23;;;;;;;1.65;1.25;;;;;;;15.84;85.52;100601.53;10444588;28;20071;-80
2023/12/08 04:54:25;;;;;;;1.00;0.75;;;;;;;16.93;85.89;100612.53;10440738;28;20052;-80
2023/12/08 04:59:27;;;;;;;1.08;0.65;;;;;;;17.03;85.81;100615.94;10444792;28;20049;-80
2023/12/08 05:04:28;;;;;;;0.52;0.30;;;;;;;16.65;87.44;100619.53;10456951;28;20123;-80
2023/12/08 05:09:30;;;;;;;0.75;0.47;;;;;;;16.96;85.30;100609.03;10448124;28;20119;-80
2023/12/08 05:14:32;;;;;;;1.08;0.90;;;;;;;17.46;85.42;100612.22;10445346;28;20052;-79
2023/12/08 05:19:34;;;;;;;2.40;1.15;;;;;;;17.91;85.67;100622.25;10443765;28;20446;-80
2023/12/08 05:24:35;;;;;;;0.00;0.00;;;;;;;18.31;82.56;100647.97;10445071;28;20071;-80
2023/12/08 05:29:38;;;;;;;0.00;0.00;;;;;;;17.15;85.50;100646.25;10464367;28;20033;-80
2023/12/08 05:34:39;;;;;;;0.00;0.00;;;;;;;17.55;86.66;100639.91;10460239;28;20491;-80
2023/12/08 05:39:41;;;;;;;0.10;0.10;;;;;;;17.62;85.78;100636.38;10418480;28;20071;-81
2023/12/08 05:44:43;;;;;;;0.28;0.15;;;;;;;16.77;85.86;100637.72;10445073;28;20048;-80
2023/12/08 05:49:44;;;;;;;0.10;0.10;;;;;;;16.60;86.91;100636.91;10416773;28;20171;-80
2023/12/08 05:54:46;;;;;;;0.00;0.00;;;;;;;16.92;88.42;100623.81;10429734;28;20053;-80
2023/12/08 05:59:48;;;;;;;0.13;0.13;;;;;;;15.70;89.87;100624.03;10439353;28;20062;-80
2023/12/08 06:04:50;;;;;;;1.55;0.50;;;;;;;16.25;89.78;100591.09;10444167;28;20094;-80
2023/12/08 06:09:52;;;;;;;0.85;0.25;;;;;;;15.94;90.11;100594.59;10445389;28;20041;-79
2023/12/08 06:14:54;;;;;;;0.20;0.13;;;;;;;15.52;90.91;100585.94;10433215;28;20545;-79
2023/12/08 06:19:57;;;;;;;0.10;0.10;;;;;;;16.31;90.79;100591.06;10432361;28;20045;-80
2023/12/08 06:24:58;;;;;;;0.80;0.47;;;;;;;15.83;90.12;100597.19;10428837;28;20118;-80
2023/12/08 06:30:00;;;;;;;0.00;0.00;;;;;;;15.45;90.75;100599.78;10429231;28;20148;-79
2023/12/08 06:35:02;;;;;;;0.57;0.52;;;;;;;14.82;91.78;100611.75;10468394;28;20045;-80
2023/12/08 06:40:05;;;;;;;1.17;0.60;;;;;;;16.06;91.87;100604.09;10458147;28;20041;-79
2023/12/08 06:45:07;;;;;;;0.57;0.52;;;;;;;17.12;91.23;100609.84;10442574;28;20048;-80
2023/12/08 06:50:10;;;;;;;0.47;0.47;;;;;;;16.53;90.06;100609.19;10442766;28;20041;-79
2023/12/08 06:55:11;;;;;;;0.20;0.20;;;;;;;16.94;90.18;100610.81;10445863;28;20068;-80
2023/12/08 07:00:14;;;;;;;0.95;0.50;;;;;;;15.95;92.65;100616.25;10442219;28;20067;-80
2023/12/08 07:05:19;;;;;;;1.08;0.98;;;;;;;16.84;91.48;100622.09;10455553;28;20067;-80
2023/12/08 07:10:22;;;;;;;0.28;0.25;;;;;;;16.45;92.20;100617.03;10456782;28;20045;-79
2023/12/08 07:15:24;;;;;;;1.50;1.40;;;;;;;16.34;91.82;100615.31;10457471;28;20048;-79
2023/12/08 07:20:27;;;;;;;0.10;0.10;;;;;;;16.72;90.59;100618.66;10459565;28;20058;-80
2023/12/08 07:25:31;;;;;;;0.52;0.52;;;;;;;15.33;94.38;100630.06;10435772;28;20492;-80
2023/12/08 07:30:33;;;;;;;1.58;1.17;;;;;;;16.39;93.21;100622.22;10450769;28;20060;-80
2023/12/08 07:35:35;;;;;;;1.70;1.55;;;;;;;17.13;91.95;100621.94;10441418;28;20048;-79
2023/12/08 07:40:37;;;;;;;0.28;0.28;;;;;;;17.02;92.75;100613.34;10456471;28;20045;-80
2023/12/08 07:45:39;;;;;;;1.58;1.48;;;;;;;16.06;93.11;100619.69;10455328;28;20045;-80
2023/12/08 07:50:41;;;;;;;0.85;0.75;;;;;;;16.27;92.39;100620.56;10463708;28;20045;-80
2023/12/08 07:55:43;;;;;;;1.05;0.50;;;;;;;15.76;92.85;100624.00;10446776;28;20385;-80
2023/12/08 08:00:45;;;;;;;0.50;0.50;;;;;;;17.32;91.59;100633.13;10432248;28;20408;-80
2023/12/08 08:05:47;;;;;;;0.95;0.95;;;;;;;17.06;92.78;100644.56;10449192;28;20392;-80
2023/12/08 08:10:49;;;;;;;2.05;0.98;;;;;;;15.95;95.73;100652.63;10440727;28;20045;-80
2023/12/08 08:15:51;;;;;;;1.48;1.20;;;;;;;15.34;95.64;100655.13;10453168;28;20049;-79
2023/12/08 08:20:53;;;;;;;0.17;0.17;;;;;;;16.75;94.03;100647.25;10445330;28;20073;-80
2023/12/08 08:25:55;;;;;;;1.23;1.02;;;;;;;16.33;93.95;100649.13;10433035;28;20048;-80
2023/12/08 08:30:59;;;;;;;0.00;0.00;;;;;;;16.01;96.81;100663.03;10424810;28;20080;-81
2023/12/08 08:36:01;;;;;;;0.75;0.75;;;;;;;15.19;98.53;100652.50;10445251;28;20047;-80
2023/12/08 08:41:03;;;;;;;0.45;0.43;;;;;;;16.64;95.05;100654.25;10436974;28;20040;-80
2023/12/08 08:46:05;;;;;;;0.10;0.10;;;;;;;16.77;95.58;100655.94;10441143;28;20136;-80
2023/12/08 08:51:08;;;;;;;0.52;0.52;;;;;;;17.26;96.57;100644.47;10448659;28;20040;-81
2023/12/08 08:56:11;;;;;;;0.57;0.43;;;;;;;16.73;96.55;100643.78;10445684;28;20056;-79
2023/12/08 09:01:12;;;;;;;1.65;1.23;;;;;;;16.57;96.46;100652.53;10441951;28;20124;-80
2023/12/08 09:06:14;;;;;;;0.95;0.93;;;;;;;16.17;98.44;100658.66;10441432;28;20049;-80
2023/12/08 09:11:16;;;;;;;0.52;0.43;;;;;;;15.81;99.48;100652.59;10437088;28;20049;-80
2023/12/08 09:16:18;;;;;;;0.63;0.63;;;;;;;15.89;99.43;100657.84;10432347;28;20171;-80
2023/12/08 09:21:19;;;;;;;2.92;1.20;;;;;;;14.63;100.00;100659.16;10424127;28;20044;-79
2023/12/08 09:26:21;;;;;;;0.82;0.82;;;;;;;14.93;100.00;100660.22;10437804;28;20144;-80
2023/12/08 09:31:23;;;;;;;2.05;1.00;;;;;;;15.41;100.00;100656.00;10419128;28;20049;-80
2023/12/08 09:36:24;;;;;;;0.52;0.50;;;;;;;15.48;100.00;100672.47;10456743;28;20544;-80
2023/12/08 09:41:27;;;;;;;2.10;1.38;;;;;;;14.57;100.00;100671.22;10428694;28;20468;-80
2023/12/08 09:46:30;;;;;;;2.53;0.70;;;;;;;15.21;100.00;100664.63;10429527;28;20041;-79
2023/12/08 09:51:32;;;;;;;0.25;0.25;;;;;;;16.09;100.00;100660.41;10439484;28;20052;-80
2023/12/08 09:56:34;;;;;;;2.17;1.35;;;;;;;16.98;100.00;100664.56;10457245;28;20048;-80
2023/12/08 10:01:36;;;;;;;0.60;0.60;;;;;;;15.34;100.00;100665.50;10434721;28;20048;-80
2023/12/08 10:06:38;;;;;;;0.52;0.52;;;;;;;15.79;100.00;100668.19;10416091;28;20067;-80
2023/12/08 10:11:40;;;;;;;0.45;0.45;;;;;;;16.42;100.00;100658.63;10451428;28;20047;-80
2023/12/08 10:16:43;;;;;;;3.30;1.77;;;;;;;16.25;100.00;100661.28;10427908;28;20488;-80
2023/12/08 10:21:59;;;;;;;0.52;0.52;;;;;;;15.20;100.00;100662.00;10464400;28;20128;-80
2023/12/08 10:27:01;;;;;;;0.93;0.80;;;;;;;15.21;100.00;100659.44;10437719;28;20167;-80
2023/12/08 10:32:06;;;;;;;1.83;1.23;;;;;;;13.81;100.00;100677.59;10427828;28;20045;-80
2023/12/08 10:37:08;;;;;;;1.27;0.65;;;;;;;15.86;100.00;100671.69;10442917;28;20060;-80
2023/12/08 10:42:10;;;;;;;5.32;1.10;;;;;;;14.96;100.00;100673.16;10441592;28;20396;-80
2023/12/08 10:47:17;;;;;;;1.30;1.02;;;;;;;15.93;100.00;100664.75;10424284;28;20056;-80
2023/12/08 10:52:22;;;;;;;1.00;0.75;;;;;;;15.90;100.00;100669.97;10443560;28;20041;-80
2023/12/08 10:57:25;;;;;;;0.52;0.52;;;;;;;14.89;100.00;100675.75;10452186;28;20076;-80
2023/12/08 11:02:31;;;;;;;1.00;0.73;;;;;;;15.33;100.00;100669.00;10435826;28;20071;-85
2023/12/08 11:07:35;;;;;;;3.35;1.65;;;;;;;15.85;100.00;100673.41;10449769;28;20078;-86
2023/12/08 11:12:49;;;;;;;0.15;0.15;;;;;;;15.11;100.00;100665.44;10427687;28;20045;-86
2023/12/08 11:18:15;;;;;;;1.60;1.17;;;;;;;16.38;100.00;100659.53;10446206;28;20045;-85
2023/12/08 11:23:19;;;;;;;1.20;0.95;;;;;;;16.20;100.00;100661.28;10443033;28;20048;-86
2023/12/08 11:28:27;;;;;;;3.47;1.65;;;;;;;15.43;100.00;100659.50;10441139;28;20095;-87
2023/12/08 11:34:11;;;;;;;0.43;0.43;;;;;;;16.05;100.00;100664.72;10442351;28;20044;-87
2023/12/08 11:39:46;;;;;;;0.55;0.55;;;;;;;15.49;100.00;100654.28;10453730;28;20044;-87
2023/12/08 11:44:49;;;;;;;1.00;0.40;;;;;;;16.44;100.00;100662.09;10406963;28;20126;-87
2023/12/08 11:49:54;;;;;;;12.40;0.85;;;;;;;15.94;100.00;100672.53;10437991;28;20072;-88
2023/12/08 11:55:19;;;;;;;2.00;0.60;;;;;;;16.13;100.00;100668.19;10454613;28;20043;-87
2023/12/08 12:00:36;;;;;;;3.30;2.13;;;;;;;17.60;100.00;100679.84;10455148;28;20041;-87
2023/12/08 12:05:41;;;;;;;0.88;0.60;;;;;;;16.89;100.00;100680.16;10433801;28;20124;-90
2023/12/08 12:10:45;;;;;;;3.33;1.25;;;;;;;16.16;100.00;100680.31;10444711;28;20476;-89
2023/12/08 12:15:47;;;;;;;11.50;1.38;;;;;;;17.75;100.00;100682.34;10458827;28;20090;-89
2023/12/08 12:20:48;;;;;;;1.75;1.63;;;;;;;18.14;100.00;100681.16;10457612;28;20045;-90
2023/12/08 12:25:50;;;;;;;0.95;0.60;;;;;;;18.37;100.00;100678.34;10457365;28;20127;-89
2023/12/08 12:30:52;;;;;;;6.30;0.93;;;;;;;16.94;100.00;100675.84;10445765;28;20041;-90
2023/12/08 12:35:54;;;;;;;2.05;1.23;;;;;;;17.76;100.00;100681.44;10477790;28;20078;-90
2023/12/08 12:41:20;;;;;;;0.20;0.20;;;;;;;16.64;100.00;100685.47;10485319;28;20036;-90
2023/12/08 12:46:22;;;;;;;1.85;1.45;;;;;;;18.16;100.00;100685.50;10476164;28;20035;-90
2023/12/08 12:51:35;;;;;;;0.95;0.88;;;;;;;18.20;100.00;100691.56;10480217;28;20114;-90
2023/12/08 12:56:48;;;;;;;1.17;1.05;;;;;;;17.19;100.00;100700.03;10427163;28;20094;-88
2023/12/08 13:01:50;;;;;;;0.80;0.80;;;;;;;17.58;100.00;100692.00;10424879;28;20037;-91
2023/12/08 13:06:52;;;;;;;4.38;1.58;;;;;;;16.72;100.00;100709.69;10449470;28;20045;-91
2023/12/08 13:11:54;;;;;;;1.27;1.10;;;;;;;17.13;100.00;100715.66;10435678;28;20052;-89
2023/12/08 13:16:58;;;;;;;0.75;0.68;;;;;;;19.65;100.00;100705.50;10466294;28;20135;-90
2023/12/08 13:22:00;;;;;;;0.70;0.70;;;;;;;19.59;100.00;100710.81;10443246;28;20105;-89
2023/12/08 13:27:02;;;;;;;2.08;1.52;;;;;;;19.48;100.00;100704.88;10438745;28;20051;-90
2023/12/08 13:32:05;;;;;;;0.93;0.82;;;;;;;20.57;100.00;100710.13;10480662;28;20139;-89
2023/12/08 13:37:07;;;;;;;2.40;2.20;;;;;;;20.33;100.00;100724.47;10433374;28;20132;-90
2023/12/08 13:42:09;;;;;;;1.00;0.85;;;;;;;19.74;100.00;100730.63;10455166;28;20036;-91
2023/12/08 13:47:11;;;;;;;1.17;0.90;;;;;;;19.85;100.00;100738.34;10467951;28;20041;-92
2023/12/08 13:52:14;;;;;;;1.17;1.08;;;;;;;19.29;100.00;100744.31;10448778;28;20087;-90
2023/12/08 13:57:16;;;;;;;0.95;0.77;;;;;;;19.55;100.00;100740.47;10451303;28;20541;-90
2023/12/08 14:02:18;;;;;;;1.45;1.35;;;;;;;18.96;100.00;100756.03;10451767;28;20129;-88
2023/12/08 14:07:20;;;;;;;1.73;1.10;;;;;;;20.21;100.00;100756.97;10436207;28;20493;-92
2023/12/08 14:12:22;;;;;;;1.50;0.90;;;;;;;20.54;100.00;100765.13;10457986;28;20045;-92
2023/12/08 14:17:24;;;;;;;0.47;0.47;;;;;;;18.85;100.00;100769.19;10445806;28;20044;-90
2023/12/08 14:22:26;;;;;;;1.48;1.38;;;;;;;19.44;100.00;100778.97;10415413;28;20041;-91
2023/12/08 14:27:31;;;;;;;1.15;0.95;;;;;;;19.28;100.00;100779.16;10425115;28;20045;-91
2023/12/08 14:38:43;;;;;;;2.47;2.00;;;;;;;19.92;100.00;100775.72;10448345;28;20119;-91
2023/12/08 14:43:44;;;;;;;2.38;0.45;;;;;;;20.12;100.00;100778.03;10440044;28;20049;-90
2023/12/08 14:48:47;;;;;;;2.88;1.38;;;;;;;18.91;100.00;100797.81;10439631;28;20131;-91
2023/12/08 14:53:51;;;;;;;0.25;0.25;;;;;;;19.72;100.00;100789.94;10465158;28;20574;-91
2023/12/08 14:58:53;;;;;;;2.15;1.63;;;;;;;19.96;100.00;100783.50;10431256;28;20488;-91
2023/12/08 15:03:55;;;;;;;1.45;1.35;;;;;;;20.19;100.00;100777.06;10424117;28;20045;-91
2023/12/08 15:08:57;;;;;;;1.30;0.65;;;;;;;19.18;100.00;100780.16;10426262;28;20041;-90
2023/12/08 15:13:59;;;;;;;5.43;1.88;;;;;;;20.80;100.00;100781.28;10439800;28;20067;-90
2023/12/08 15:19:00;;;;;;;1.88;0.52;;;;;;;20.70;100.00;100788.41;10452264;28;20045;-91
2023/12/08 15:24:03;;;;;;;2.40;1.90;;;;;;;19.52;100.00;100795.41;10428609;28;20044;-86
2023/12/08 15:29:05;;;;;;;2.85;1.75;;;;;;;20.39;100.00;100796.78;10443810;28;20056;-88
2023/12/08 15:34:06;;;;;;;4.95;1.27;;;;;;;19.69;100.00;100815.25;10445743;28;20561;-86
2023/12/08 15:39:08;;;;;;;1.75;0.90;;;;;;;20.89;100.00;100823.84;10436332;28;20045;-88
2023/12/08 15:44:10;;;;;;;1.42;0.55;;;;;;;19.81;100.00;100828.13;10439652;28;20485;-86
2023/12/08 15:49:12;;;;;;;1.90;1.15;;;;;;;20.64;100.00;100827.78;10443154;28;20488;-88
2023/12/08 15:54:15;;;;;;;1.13;1.02;;;;;;;19.89;100.00;100839.38;10442218;28;20506;-87
2023/12/08 15:59:17;;;;;;;5.57;2.10;;;;;;;20.88;100.00;100836.97;10443020;28;20526;-84
2023/12/08 16:04:19;;;;;;;0.70;0.55;;;;;;;20.62;100.00;100846.13;10441664;28;20458;-84
2023/12/08 16:09:21;;;;;;;6.22;1.60;;;;;;;19.51;100.00;100853.78;10455326;28;20068;-83
2023/12/08 16:14:22;;;;;;;5.78;1.10;;;;;;;20.89;100.00;100850.03;10451462;28;20565;-82
2023/12/08 16:19:24;;;;;;;1.45;0.45;;;;;;;20.91;100.00;100863.13;10454304;28;20495;-81
2023/12/08 16:24:26;;;;;;;5.95;1.27;;;;;;;20.50;100.00;100862.91;10456127;28;20186;-81
2023/12/08 16:29:28;;;;;;;0.55;0.52;;;;;;;21.46;100.00;100866.44;10453300;28;20060;-81
2023/12/08 16:34:29;;;;;;;2.13;0.70;;;;;;;19.66;100.00;100878.84;10443780;28;20488;-81
2023/12/08 16:39:32;;;;;;;1.42;1.33;;;;;;;19.70;100.00;100882.28;10450222;28;20074;-80
2023/12/08 16:44:34;;;;;;;14.23;2.70;;;;;;;19.89;100.00;100894.28;10457049;28;20507;-81
2023/12/08 16:49:35;;;;;;;3.13;1.58;;;;;;;19.91;100.00;100899.50;10439019;28;20076;-80
2023/12/08 16:54:37;;;;;;;0.85;0.85;;;;;;;20.57;100.00;100895.06;10455484;28;20051;-80
2023/12/08 16:59:40;;;;;;;3.00;1.70;;;;;;;20.72;100.00;100887.00;10453138;28;20075;-81
2023/12/08 17:04:41;;;;;;;9.35;2.42;;;;;;;22.06;100.00;100893.19;10433535;28;20458;-81
2023/12/08 17:09:43;;;;;;;4.10;0.82;;;;;;;19.48;100.00;100895.59;10447995;28;20877;-81
2023/12/08 17:14:45;;;;;;;3.30;1.08;;;;;;;20.47;100.00;100903.97;10467369;28;20149;-81
2023/12/08 17:19:47;;;;;;;1.30;1.02;;;;;;;20.72;100.00;100904.44;10435538;28;20095;-81
2023/12/08 17:24:49;;;;;;;0.40;0.40;;;;;;;22.00;100.00;100898.59;10452527;28;20052;-81
2023/12/08 17:29:50;;;;;;;1.02;1.00;;;;;;;21.84;100.00;100893.66;10453693;28;20057;-81
2023/12/08 17:34:52;;;;;;;0.55;0.52;;;;;;;21.44;100.00;100896.22;10433362;28;20056;-80
2023/12/08 17:39:56;;;;;;;1.52;1.10;;;;;;;22.53;100.00;100892.13;10431734;28;20094;-81
2023/12/08 17:44:58;;;;;;;3.17;1.27;;;;;;;20.60;100.00;100895.00;10450821;28;20037;-81
2023/12/08 17:50:00;;;;;;;1.33;0.85;;;;;;;22.88;100.00;100911.44;10437083;28;20094;-81
2023/12/08 17:55:04;;;;;;;4.82;1.33;;;;;;;21.40;100.00;100913.75;10437553;28;20037;-81
2023/12/08 18:00:07;;;;;;;5.07;2.08;;;;;;;21.96;100.00;100924.03;10431770;28;20415;-80
2023/12/08 18:05:15;;;;;;;1.25;0.80;;;;;;;22.91;100.00;100925.34;10450212;28;20459;-81
2023/12/08 18:10:17;;;;;;;1.63;1.17;;;;;;;24.23;100.00;100932.28;10449495;28;20423;-82
2023/12/08 18:15:43;;;;;;;1.00;0.75;;;;;;;22.17;100.00;100921.81;10441349;28;20044;-82
2023/12/08 18:20:45;;;;;;;1.83;1.27;;;;;;;24.20;100.00;100927.09;10450666;28;20045;-81
2023/12/08 18:25:53;;;;;;;4.38;1.45;;;;;;;24.03;100.00;100931.09;10469134;28;20148;-81
2023/12/08 18:30:55;;;;;;;3.63;1.85;;;;;;;22.57;100.00;100931.41;10446893;28;20048;-81
2023/12/08 18:35:57;;;;;;;1.00;0.70;;;;;;;22.61;100.00;100929.56;10453017;28;20048;-80
2023/12/08 18:40:59;;;;;;;2.78;1.98;;;;;;;23.87;100.00;100940.31;10458478;28;20036;-80
2023/12/08 18:46:01;;;;;;;0.65;0.60;;;;;;;22.42;100.00;100943.16;10470121;28;20036;-80
2023/12/08 18:51:03;;;;;;;1.17;1.08;;;;;;;22.51;100.00;100942.06;10462283;28;20044;-80
2023/12/08 18:56:06;;;;;;;2.05;1.10;;;;;;;22.15;100.00;100945.44;10435456;28;20094;-80
2023/12/08 19:01:10;;;;;;;2.17;1.70;;;;;;;22.47;100.00;100935.19;10441925;28;20087;-80
2023/12/08 19:06:12;;;;;;;0.43;0.43;;;;;;;22.07;100.00;100931.66;10458192;28;20049;-80
2023/12/08 19:11:14;;;;;;;1.05;0.50;;;;;;;23.57;100.00;100940.28;10456001;28;20471;-81
2023/12/08 19:16:16;;;;;;;1.02;0.93;;;;;;;22.95;100.00;100941.91;10457008;28;20137;-81
2023/12/08 19:21:19;;;;;;;2.42;1.65;;;;;;;23.88;100.00;100944.69;10455845;28;20041;-81
2023/12/08 19:26:21;;;;;;;7.47;1.05;;;;;;;22.60;100.00;100946.25;10455640;28;20060;-81
2023/12/08 19:31:23;;;;;;;2.42;1.50;;;;;;;23.85;100.00;100955.31;10460220;28;20045;-81
2023/12/08 19:36:24;;;;;;;1.05;0.90;;;;;;;22.58;100.00;100954.16;10443166;28;20400;-81
2023/12/08 19:41:26;;;;;;;3.90;0.80;;;;;;;22.29;100.00;100957.44;10450513;28;20049;-81
2023/12/08 19:46:28;;;;;;;3.30;1.25;;;;;;;23.18;100.00;100958.88;10453660;28;20041;-81
2023/12/08 19:51:30;;;;;;;1.27;1.17;;;;;;;23.13;100.00;100959.81;10453589;28;20281;-81
2023/12/08 19:56:32;;;;;;;2.83;0.75;;;;;;;22.35;100.00;100967.78;10457867;28;20407;-81
2023/12/08 20:01:33;;;;;;;1.85;1.52;;;;;;;22.62;100.00;100970.69;10446501;28;20132;-80
2023/12/08 20:06:35;;;;;;;1.17;0.82;;;;;;;21.34;100.00;100976.72;10447875;28;20045;-80
2023/12/08 20:11:37;;;;;;;3.40;1.05;;;;;;;22.16;100.00;100972.56;10451261;28;20041;-80
2023/12/08 20:16:39;;;;;;;0.85;0.85;;;;;;;23.05;100.00;100985.41;10441448;28;20119;-81
2023/12/08 20:21:41;;;;;;;1.38;1.05;;;;;;;22.71;100.00;100972.25;10457556;28;20037;-81
2023/12/08 20:26:43;;;;;;;1.60;1.23;;;;;;;22.54;100.00;100980.50;10440801;28;20056;-80
2023/12/08 20:31:45;;;;;;;2.25;1.95;;;;;;;22.25;100.00;100989.88;10432638;28;20128;-80
2023/12/08 20:36:46;;;;;;;2.90;1.40;;;;;;;22.34;100.00;100992.28;10446412;28;20044;-80
2023/12/08 20:41:49;;;;;;;1.13;0.98;;;;;;;20.80;100.00;100994.22;10453258;28;20041;-80
2023/12/08 20:47:16;;;;;;;1.58;1.48;;;;;;;21.28;100.00;100982.09;10428804;28;20045;-80
2023/12/08 20:52:17;;;;;;;1.65;1.25;;;;;;;21.52;100.00;100981.66;10448433;28;20036;-80
2023/12/08 20:57:19;;;;;;;0.73;0.65;;;;;;;22.27;100.00;100977.56;10454119;28;20090;-80
2023/12/08 21:02:21;;;;;;;0.88;0.73;;;;;;;21.80;100.00;100981.16;10443518;28;20393;-80
2023/12/08 21:07:22;;;;;;;1.65;1.55;;;;;;;22.78;100.00;100982.56;10439192;28;20040;-80
2023/12/08 21:12:24;;;;;;;2.38;1.70;;;;;;;23.38;100.00;100982.88;10438856;28;20499;-81
2023/12/08 21:17:27;;;;;;;4.47;1.13;;;;;;;21.96;100.00;100991.34;10435857;28;20462;-80
2023/12/08 21:22:29;;;;;;;8.82;1.63;;;;;;;22.52;100.00;100990.22;10449617;28;20416;-80
2023/12/08 21:27:32;;;;;;;1.00;0.75;;;;;;;23.58;100.00;100989.34;10456715;28;20059;-80
2023/12/08 21:32:33;;;;;;;3.25;1.50;;;;;;;18.99;100.00;100996.19;10426868;28;20118;-80
2023/12/08 21:37:36;;;;;;;3.65;1.63;;;;;;;18.95;100.00;100989.25;10453803;28;20479;-80
2023/12/08 21:42:43;;;;;;;1.10;0.70;;;;;;;20.33;100.00;100998.34;10456708;28;20044;-80
2023/12/08 21:47:47;;;;;;;1.48;0.73;;;;;;;18.49;100.00;101001.69;10445206;28;20079;-80
2023/12/08 21:52:49;;;;;;;2.47;1.55;;;;;;;19.09;100.00;100991.78;10481962;28;20033;-80
2023/12/08 21:57:54;;;;;;;1.98;1.10;;;;;;;18.74;100.00;100990.22;10436160;28;20094;-79
2023/12/08 22:02:56;;;;;;;0.55;0.55;;;;;;;19.00;100.00;100988.34;10449154;28;20032;-80
2023/12/08 22:07:58;;;;;;;0.13;0.13;;;;;;;19.73;100.00;100986.81;10438577;28;20049;-80
2023/12/08 22:12:59;;;;;;;1.05;0.85;;;;;;;18.75;100.00;100984.13;10452413;28;20453;-81
2023/12/08 22:18:03;;;;;;;1.35;0.70;;;;;;;19.80;100.00;100970.16;10444216;28;20101;-81
2023/12/08 22:23:05;;;;;;;3.13;1.17;;;;;;;19.45;100.00;100981.88;10459472;28;20565;-80
2023/12/08 22:28:08;;;;;;;1.85;0.80;;;;;;;20.31;100.00;100984.41;10445659;28;20045;-80
2023/12/08 22:33:10;;;;;;;0.28;0.20;;;;;;;18.58;100.00;100992.94;10437523;28;20047;-80
2023/12/08 22:38:12;;;;;;;2.92;0.90;;;;;;;19.39;100.00;100989.78;10429154;28;20573;-80
2023/12/08 22:43:14;;;;;;;0.25;0.20;;;;;;;18.28;100.00;100988.75;10452174;28;20550;-80
2023/12/08 22:48:15;;;;;;;0.47;0.47;;;;;;;17.82;100.00;100997.59;10425870;28;20151;-80
2023/12/08 22:53:17;;;;;;;1.33;1.08;;;;;;;18.38;100.00;101006.97;10428421;28;20302;-80
2023/12/08 22:58:19;;;;;;;2.60;1.25;;;;;;;18.21;100.00;101001.84;10442639;28;20044;-80
2023/12/08 23:03:21;;;;;;;1.42;0.30;;;;;;;18.49;100.00;101001.69;10434038;28;20132;-80
2023/12/08 23:08:23;;;;;;;0.50;0.50;;;;;;;17.80;100.00;101009.75;10450653;28;20049;-80